createdAt,value
2022-09-25T00:02:10.378Z,328.35
2022-09-25T00:04:39.095Z,311.10
2022-09-25T00:07:07.620Z,302.10
2022-09-25T00:09:36.567Z,278.80
2022-09-25T00:12:05.187Z,303.48
2022-09-25T00:14:33.826Z,287.65
2022-09-25T00:17:03.398Z,288.80
2022-09-25T00:19:55.102Z,296.05
2022-09-25T00:22:27.010Z,299.27
2022-09-25T00:24:55.662Z,288.33
2022-09-25T00:27:24.132Z,287.52
2022-09-25T00:29:53.581Z,271.85
2022-09-25T00:32:22.103Z,266.45
2022-09-25T00:34:52.233Z,284.13
2022-09-25T00:37:21.226Z,299.02
2022-09-25T00:39:49.741Z,271.20
2022-09-25T00:42:21.504Z,287.38
2022-09-25T00:44:57.584Z,277.20
2022-09-25T00:47:46.280Z,281.65
2022-09-25T00:50:26.251Z,279.65
2022-09-25T00:53:04.122Z,285.23
2022-09-25T00:55:35.233Z,279.63
2022-09-25T00:58:05.262Z,262.88
2022-09-25T01:00:34.908Z,242.10
2022-09-25T01:03:05.279Z,260.10
2022-09-25T01:05:38.427Z,241.10
2022-09-25T01:08:10.323Z,217.13
2022-09-25T01:10:38.884Z,229.00
2022-09-25T01:13:07.984Z,225.35
2022-09-25T01:15:45.530Z,208.95
2022-09-25T01:18:26.426Z,211.55
2022-09-25T01:21:06.467Z,230.05
2022-09-25T01:23:57.396Z,216.27
2022-09-25T01:26:45.176Z,234.38
2022-09-25T01:29:19.353Z,236.52
2022-09-25T01:31:53.313Z,245.30
2022-09-25T01:34:28.622Z,225.98
2022-09-25T01:37:03.725Z,220.40
2022-09-25T01:39:36.622Z,241.15
2022-09-25T01:42:12.043Z,229.25
2022-09-25T01:44:47.633Z,237.88
2022-09-25T01:47:22.567Z,227.93
2022-09-25T01:49:56.925Z,248.07
2022-09-25T01:52:33.149Z,269.95
2022-09-25T01:55:10.003Z,245.80
2022-09-25T01:57:45.392Z,245.18
2022-09-25T02:00:19.095Z,264.75
2022-09-25T02:02:55.409Z,253.35
2022-09-25T02:05:29.662Z,223.30
2022-09-25T02:08:03.039Z,273.85
2022-09-25T02:10:36.832Z,249.43
2022-09-25T02:13:10.669Z,274.67
2022-09-25T02:15:45.146Z,256.70
2022-09-25T02:18:34.906Z,247.25
2022-09-25T02:21:14.331Z,194.35
2022-09-25T02:23:52.143Z,232.23
2022-09-25T02:26:27.386Z,238.75
2022-09-25T02:28:56.614Z,260.60
2022-09-25T02:31:35.899Z,257.83
2022-09-25T02:34:05.361Z,272.73
2022-09-25T02:36:36.315Z,274.60
2022-09-25T02:39:07.925Z,278.60
2022-09-25T02:41:50.558Z,241.80
2022-09-25T02:44:29.266Z,255.07
2022-09-25T02:47:14.313Z,286.23
2022-09-25T02:49:52.436Z,94.50
2022-09-25T02:52:29.164Z,6.82
2022-09-25T02:55:04.115Z,9.30
2022-09-25T02:57:40.894Z,6.32
2022-09-25T03:00:10.997Z,2.00
2022-09-25T03:02:46.839Z,4.05
2022-09-25T03:05:18.678Z,1.52
2022-09-25T03:08:04.431Z,1.20
2022-09-25T03:10:36.324Z,14.90
2022-09-25T03:13:15.524Z,20.08
2022-09-25T03:15:48.199Z,5.30
2022-09-25T03:18:18.361Z,9.27
2022-09-25T03:20:46.967Z,1.60
2022-09-25T03:23:15.796Z,3.08
2022-09-25T03:25:49.748Z,18.42
2022-09-25T03:28:19.658Z,11.27
2022-09-25T03:30:58.502Z,8.95
2022-09-25T03:33:29.899Z,4.30
2022-09-25T03:36:07.090Z,4.70
2022-09-25T03:38:35.608Z,20.42
2022-09-25T03:41:06.943Z,2.38
2022-09-25T03:43:37.491Z,6.10
2022-09-25T03:46:06.286Z,2.00
2022-09-25T03:48:36.676Z,3.42
2022-09-25T03:51:06.427Z,47.45
2022-09-25T03:53:35.809Z,75.13
2022-09-25T03:56:07.335Z,2.28
2022-09-25T03:58:36.697Z,2.05
2022-09-25T04:04:16.531Z,5.60
2022-09-25T04:06:46.150Z,1.13
2022-09-25T04:09:14.607Z,39.00
2022-09-25T04:11:43.127Z,1.00
2022-09-25T04:14:12.695Z,32.97
2022-09-25T04:16:42.012Z,1.30
2022-09-25T04:19:11.819Z,42.28
2022-09-25T04:21:41.668Z,1.27
2022-09-25T04:24:27.600Z,76.00
2022-09-25T04:26:56.034Z,1.85
2022-09-25T04:29:24.979Z,57.75
2022-09-25T04:32:07.424Z,0.98
2022-09-25T04:34:36.013Z,16.20
2022-09-25T04:37:06.071Z,1.40
2022-09-25T04:39:34.539Z,0.63
2022-09-25T04:42:03.144Z,4.78
2022-09-25T04:44:31.664Z,10.52
2022-09-25T04:47:00.175Z,2.15
2022-09-25T04:49:28.885Z,101.38
2022-09-25T04:51:57.496Z,2.88
2022-09-25T04:54:27.717Z,1.20
2022-09-25T04:56:57.663Z,1.30
2022-09-25T04:59:26.155Z,88.05
2022-09-25T05:01:54.699Z,39.88
2022-09-25T05:04:23.222Z,90.32
2022-09-25T05:06:51.687Z,152.98
2022-09-25T05:09:20.189Z,23.65
2022-09-25T05:11:50.014Z,34.70
2022-09-25T05:14:18.597Z,126.68
2022-09-25T05:16:47.491Z,127.45
2022-09-25T05:19:16.697Z,1.48
2022-09-25T05:21:45.724Z,1.10
2022-09-25T05:24:14.232Z,1.50
2022-09-25T05:26:43.028Z,1.25
2022-09-25T05:29:12.896Z,1.33
2022-09-25T05:31:42.916Z,1.35
2022-09-25T05:34:11.632Z,1.23
2022-09-25T05:36:40.065Z,0.95
2022-09-25T05:39:14.443Z,1.10
2022-09-25T05:41:43.267Z,1.00
2022-09-25T05:44:15.036Z,3.10
2022-09-25T05:46:43.583Z,1.20
2022-09-25T05:49:12.020Z,20.70
2022-09-25T05:51:40.520Z,1.40
2022-09-25T05:54:09.180Z,1.02
2022-09-25T05:56:37.796Z,1.27
2022-09-25T05:59:06.463Z,26.30
2022-09-25T06:01:36.372Z,1.27
2022-09-25T06:04:04.867Z,1.33
2022-09-25T06:06:33.323Z,65.72
2022-09-25T06:09:01.749Z,83.15
2022-09-25T06:11:31.725Z,5.35
2022-09-25T06:14:00.174Z,81.25
2022-09-25T06:16:28.679Z,1.90
2022-09-25T06:18:58.572Z,86.32
2022-09-25T06:21:27.148Z,107.40
2022-09-25T06:23:55.997Z,1.33
2022-09-25T06:26:26.028Z,1.58
2022-09-25T06:28:55.961Z,1.77
2022-09-25T06:31:27.182Z,128.75
2022-09-25T06:33:56.079Z,142.60
2022-09-25T06:36:27.379Z,8.20
2022-09-25T06:38:56.260Z,22.88
2022-09-25T06:41:25.085Z,7.72
2022-09-25T06:43:55.239Z,12.13
2022-09-25T06:46:24.111Z,130.90
2022-09-25T06:48:54.541Z,28.25
2022-09-25T06:51:23.530Z,1.92
2022-09-25T06:53:55.942Z,2.30
2022-09-25T06:56:24.479Z,2.42
2022-09-25T06:58:52.966Z,2.30
2022-09-25T07:01:21.570Z,4.80
2022-09-25T07:03:49.929Z,15.75
2022-09-25T07:06:20.279Z,12.43
2022-09-25T07:08:49.504Z,12.52
2022-09-25T07:11:20.913Z,2.08
2022-09-25T07:13:55.456Z,2.47
2022-09-25T07:16:25.699Z,2.58
2022-09-25T07:18:55.735Z,1.65
2022-09-25T07:21:27.865Z,1.80
2022-09-25T07:23:57.633Z,1.67
2022-09-25T07:26:28.964Z,6.47
2022-09-25T07:28:59.458Z,62.10
2022-09-25T07:31:29.662Z,12.73
2022-09-25T07:33:59.758Z,95.03
2022-09-25T07:36:28.740Z,53.63
2022-09-25T07:38:57.176Z,4.15
2022-09-25T07:41:27.416Z,3.92
2022-09-25T07:46:46.487Z,4.78
2022-09-25T07:49:15.239Z,10.43
2022-09-25T07:51:43.670Z,28.40
2022-09-25T07:54:12.220Z,5.57
2022-09-25T07:56:42.073Z,5.68
2022-09-25T07:59:10.996Z,4.60
2022-09-25T08:01:44.683Z,4.15
2022-09-25T08:04:14.847Z,35.22
2022-09-25T08:06:43.477Z,2.97
2022-09-25T08:09:12.531Z,2.60
2022-09-25T08:11:43.085Z,3.40
2022-09-25T08:14:14.516Z,3.40
2022-09-25T08:16:43.907Z,3.17
2022-09-25T08:19:12.772Z,2.78
2022-09-25T08:21:41.701Z,1.98
2022-09-25T08:24:10.924Z,2.13
2022-09-25T08:26:39.497Z,2.17
2022-09-25T08:29:09.538Z,1.67
2022-09-25T08:31:38.165Z,2.40
2022-09-25T08:34:35.848Z,1.10
2022-09-25T08:36:58.130Z,1.40
2022-09-25T08:39:26.726Z,1.70
2022-09-25T08:41:56.627Z,1.45
2022-09-25T08:44:32.425Z,1.45
2022-09-25T08:47:24.345Z,1.30
2022-09-25T08:50:05.932Z,1.10
2022-09-25T08:52:35.753Z,1.50
2022-09-25T08:55:05.046Z,1.20
2022-09-25T08:57:40.367Z,1.50
2022-09-25T09:00:20.352Z,1.05
2022-09-25T09:02:54.394Z,1.17
2022-09-25T09:05:27.232Z,1.70
2022-09-25T09:08:00.517Z,0.98
2022-09-25T09:10:35.270Z,1.02
2022-09-25T09:13:15.234Z,1.40
2022-09-25T09:15:51.329Z,1.33
2022-09-25T09:18:24.387Z,1.52
2022-09-25T09:20:56.765Z,2.55
2022-09-25T09:23:28.709Z,3.58
2022-09-25T09:26:03.144Z,3.35
2022-09-25T09:29:04.908Z,4.40
2022-09-25T09:31:46.964Z,2.05
2022-09-25T09:35:04.259Z,2.30
2022-09-25T09:37:31.872Z,2.90
2022-09-25T09:40:19.263Z,3.30
2022-09-25T09:42:56.565Z,2.00
2022-09-25T09:45:33.276Z,1.80
2022-09-25T09:48:14.077Z,2.58
2022-09-25T09:50:51.373Z,1.90
2022-09-25T09:53:30.531Z,1.50
2022-09-25T09:56:06.426Z,1.58
2022-09-25T09:58:48.487Z,0.80
2022-09-25T10:01:40.241Z,1.23
2022-09-25T10:04:12.073Z,1.83
2022-09-25T10:06:46.795Z,1.58
2022-09-25T10:09:17.277Z,1.88
2022-09-25T10:11:48.493Z,1.70
2022-09-25T10:14:22.100Z,2.55
2022-09-25T10:16:52.900Z,1.60
2022-09-25T10:19:24.946Z,1.30
2022-09-25T10:22:00.266Z,1.60
2022-09-25T10:24:52.959Z,1.42
2022-09-25T10:27:33.077Z,24.42
2022-09-25T10:30:22.776Z,45.42
2022-09-25T10:32:59.189Z,26.85
2022-09-25T10:35:31.398Z,301.40
2022-09-25T10:38:02.521Z,125.85
2022-09-25T10:40:34.282Z,491.13
2022-09-25T10:43:15.874Z,209.07
2022-09-25T10:45:45.462Z,273.48
2022-09-25T10:48:46.168Z,68.22
2022-09-25T10:51:18.520Z,569.38
2022-09-25T10:53:48.038Z,461.02
2022-09-25T10:56:21.806Z,32.60
2022-09-25T10:58:55.853Z,25.38
2022-09-25T11:01:33.659Z,145.73
2022-09-25T11:04:06.512Z,36.53
2022-09-25T11:06:37.227Z,443.60
2022-09-25T11:09:14.078Z,444.17
2022-09-25T11:11:44.325Z,57.38
2022-09-25T11:14:22.457Z,64.82
2022-09-25T11:16:54.129Z,435.75
2022-09-25T11:19:27.203Z,916.35
2022-09-25T11:22:08.192Z,907.28
2022-09-25T11:24:51.475Z,58.50
2022-09-25T11:27:25.998Z,106.82
2022-09-25T11:30:06.380Z,164.35
2022-09-25T11:32:42.728Z,168.57
2022-09-25T11:35:26.439Z,171.38
2022-09-25T11:38:05.435Z,174.00
2022-09-25T11:41:02.405Z,645.92
2022-09-25T11:43:47.688Z,33.33
2022-09-25T11:46:23.624Z,70.57
2022-09-25T11:49:09.933Z,749.70
2022-09-25T11:52:22.912Z,859.40
2022-09-25T11:55:16.137Z,11.43
2022-09-25T11:57:57.221Z,6.85
2022-09-25T12:00:32.901Z,18.60
2022-09-25T12:03:11.974Z,60.92
2022-09-25T12:05:58.844Z,235.15
2022-09-25T12:08:44.143Z,900.20
2022-09-25T12:11:23.844Z,81.85
2022-09-25T12:13:59.816Z,925.20
2022-09-25T12:16:37.282Z,912.58
2022-09-25T12:19:16.954Z,28.60
2022-09-25T12:21:50.891Z,70.22
2022-09-25T12:24:33.073Z,366.80
2022-09-25T12:27:12.027Z,530.03
2022-09-25T12:30:00.850Z,720.80
2022-09-25T12:32:48.974Z,685.38
2022-09-25T12:35:35.168Z,4.80
2022-09-25T12:38:12.036Z,26.80
2022-09-25T12:40:46.399Z,74.15
2022-09-25T12:43:24.281Z,700.92
2022-09-25T12:45:58.841Z,798.35
2022-09-25T12:48:33.178Z,774.65
2022-09-25T12:51:08.972Z,787.30
2022-09-25T12:53:41.560Z,420.73
2022-09-25T12:56:15.523Z,372.73
2022-09-25T12:58:55.541Z,368.73
2022-09-25T13:01:35.423Z,100.05
2022-09-25T13:04:22.649Z,36.53
2022-09-25T13:06:54.334Z,85.47
2022-09-25T13:09:36.896Z,155.65
2022-09-25T13:12:10.569Z,144.32
2022-09-25T13:14:46.754Z,161.82
2022-09-25T13:17:16.485Z,45.53
2022-09-25T13:19:45.078Z,24.23
2022-09-25T13:22:20.607Z,108.63
2022-09-25T13:24:53.618Z,20.63
2022-09-25T13:27:24.889Z,53.92
2022-09-25T13:30:02.893Z,89.75
2022-09-25T13:32:35.400Z,42.80
2022-09-25T13:35:07.794Z,48.25
2022-09-25T13:37:38.667Z,147.70
2022-09-25T13:40:35.414Z,202.27
2022-09-25T13:43:24.241Z,206.32
2022-09-25T13:46:28.426Z,135.48
2022-09-25T13:49:36.007Z,213.10
2022-09-25T13:52:04.471Z,27.42
2022-09-25T13:54:34.990Z,48.10
2022-09-25T13:57:03.943Z,64.60
2022-09-25T13:59:41.462Z,67.03
2022-09-25T14:02:43.864Z,132.98
2022-09-25T14:05:17.998Z,124.65
2022-09-25T14:07:48.617Z,121.05
2022-09-25T14:10:19.232Z,80.85
2022-09-25T14:12:49.826Z,131.48
2022-09-25T14:15:25.222Z,105.57
2022-09-25T14:17:57.039Z,109.10
2022-09-25T14:20:33.778Z,101.57
2022-09-25T14:23:06.303Z,31.83
2022-09-25T14:25:38.326Z,117.25
2022-09-25T14:28:20.324Z,112.18
2022-09-25T14:31:05.810Z,129.23
2022-09-25T14:33:53.696Z,109.68
2022-09-25T14:36:35.060Z,109.90
2022-09-25T14:39:20.229Z,117.38
2022-09-25T14:42:04.503Z,123.43
2022-09-25T14:44:50.448Z,93.60
2022-09-25T14:47:21.526Z,105.38
2022-09-25T14:49:54.840Z,108.88
2022-09-25T14:52:27.764Z,113.50
2022-09-25T14:54:57.889Z,117.78
2022-09-25T14:57:29.479Z,59.55
2022-09-25T15:00:01.212Z,125.25
2022-09-25T15:02:34.471Z,73.65
2022-09-25T15:07:59.494Z,126.90
2022-09-25T15:10:31.727Z,110.60
2022-09-25T15:13:16.247Z,126.28
2022-09-25T15:16:07.451Z,91.47
2022-09-25T15:18:38.984Z,104.10
2022-09-25T15:21:09.553Z,101.28
2022-09-25T15:23:39.602Z,86.57
2022-09-25T15:26:15.027Z,75.93
2022-09-25T15:28:44.019Z,83.43
2022-09-25T15:31:12.918Z,92.40
2022-09-25T15:33:42.607Z,90.13
2022-09-25T15:36:17.962Z,104.82
2022-09-25T15:38:54.301Z,157.90
2022-09-25T15:41:23.946Z,158.35
2022-09-25T15:43:53.580Z,136.55
2022-09-25T15:46:41.176Z,121.88
2022-09-25T15:49:15.524Z,69.32
2022-09-25T15:51:52.771Z,125.68
2022-09-25T15:54:38.155Z,130.35
2022-09-25T15:57:13.399Z,100.15
2022-09-25T15:59:58.517Z,126.82
2022-09-25T16:02:51.187Z,126.30
2022-09-25T16:05:27.437Z,138.02
2022-09-25T16:08:17.619Z,172.48
2022-09-25T16:10:50.122Z,97.25
2022-09-25T16:13:22.426Z,125.03
2022-09-25T16:15:53.020Z,200.35
2022-09-25T16:18:32.172Z,146.60
2022-09-25T16:21:17.661Z,129.40
2022-09-25T16:23:55.967Z,131.95
2022-09-25T16:26:31.168Z,148.25
2022-09-25T16:29:08.495Z,136.10
2022-09-25T16:31:37.448Z,110.55
2022-09-25T16:34:08.730Z,100.80
2022-09-25T16:36:43.889Z,79.68
2022-09-25T16:39:17.099Z,93.47
2022-09-25T16:41:49.741Z,126.10
2022-09-25T16:44:20.669Z,110.18
2022-09-25T16:47:07.082Z,129.55
2022-09-25T16:49:36.281Z,129.25
2022-09-25T16:52:08.573Z,187.25
2022-09-25T16:54:39.351Z,213.65
2022-09-25T16:57:13.831Z,316.85
2022-09-25T16:59:42.307Z,35.95
2022-09-25T17:02:22.788Z,29.45
2022-09-25T17:04:52.062Z,68.75
2022-09-25T17:07:20.533Z,417.80
2022-09-25T17:09:48.960Z,334.70
2022-09-25T17:12:22.467Z,338.48
2022-09-25T17:14:51.662Z,434.50
2022-09-25T17:17:21.878Z,125.50
2022-09-25T17:19:51.248Z,532.90
2022-09-25T17:22:19.686Z,515.03
2022-09-25T17:24:48.146Z,568.08
2022-09-25T17:27:18.797Z,622.42
2022-09-25T17:29:48.234Z,445.65
2022-09-25T17:32:17.720Z,270.88
2022-09-25T17:34:47.214Z,319.70
2022-09-25T17:37:15.697Z,348.92
2022-09-25T17:39:44.128Z,608.90
2022-09-25T17:42:12.871Z,554.25
2022-09-25T17:44:43.883Z,642.55
2022-09-25T17:47:13.356Z,648.60
2022-09-25T17:49:42.065Z,0.50
2022-09-25T17:52:15.781Z,0.57
2022-09-25T17:54:44.767Z,0.52
2022-09-25T17:57:13.440Z,0.57
2022-09-25T17:59:43.603Z,0.57
2022-09-25T18:02:17.981Z,0.40
2022-09-25T18:04:46.531Z,0.40
2022-09-25T18:07:15.726Z,615.55
2022-09-25T18:09:44.182Z,618.80
2022-09-25T18:12:12.660Z,0.47
2022-09-25T18:14:46.435Z,0.52
2022-09-25T18:17:16.703Z,0.70
2022-09-25T18:20:02.815Z,0.85
2022-09-25T18:22:31.366Z,0.70
2022-09-25T18:25:00.036Z,1.40
2022-09-25T18:27:30.770Z,1.30
2022-09-25T18:30:00.870Z,0.93
2022-09-25T18:32:31.462Z,0.50
2022-09-25T18:34:59.944Z,0.80
2022-09-25T18:37:28.425Z,0.75
2022-09-25T18:39:56.905Z,0.90
2022-09-25T18:42:25.333Z,1.00
2022-09-25T18:44:53.820Z,4.45
2022-09-25T18:47:23.667Z,578.72
2022-09-25T18:49:52.546Z,511.35
2022-09-25T18:52:21.067Z,511.05
2022-09-25T18:54:49.510Z,332.15
2022-09-25T18:57:18.395Z,259.27
2022-09-25T18:59:47.020Z,265.17
2022-09-25T19:02:21.216Z,309.45
2022-09-25T19:04:52.829Z,169.73
2022-09-25T19:07:21.545Z,331.08
2022-09-25T19:09:50.158Z,491.25
2022-09-25T19:12:18.754Z,505.50
2022-09-25T19:14:48.559Z,469.38
2022-09-25T19:17:18.743Z,529.00
2022-09-25T19:19:47.158Z,476.20
2022-09-25T19:22:19.033Z,377.80
2022-09-25T19:24:47.993Z,334.30
2022-09-25T19:27:17.895Z,272.02
2022-09-25T19:29:46.763Z,345.83
2022-09-25T19:32:17.185Z,314.92
2022-09-25T19:34:45.668Z,347.63
2022-09-25T19:37:15.377Z,345.83
2022-09-25T19:40:02.793Z,338.25
2022-09-25T19:42:33.830Z,383.02
2022-09-25T19:45:02.442Z,409.50
2022-09-25T19:47:30.881Z,410.50
2022-09-25T19:49:59.541Z,384.20
2022-09-25T19:52:28.002Z,404.25
2022-09-25T19:54:57.925Z,424.17
2022-09-25T19:57:26.454Z,369.67
2022-09-25T19:59:55.057Z,397.85
2022-09-25T20:02:23.584Z,398.92
2022-09-25T20:04:52.623Z,372.08
2022-09-25T20:07:21.163Z,354.55
2022-09-25T20:09:49.732Z,421.73
2022-09-25T20:12:19.617Z,402.88
2022-09-25T20:14:49.462Z,356.85
2022-09-25T20:17:17.979Z,427.35
2022-09-25T20:19:46.663Z,403.70
2022-09-25T20:22:15.344Z,414.25
2022-09-25T20:24:43.776Z,380.13
2022-09-25T20:27:12.273Z,414.27
2022-09-25T20:29:42.230Z,392.55
2022-09-25T20:32:10.739Z,394.95
2022-09-25T20:34:39.254Z,375.52
2022-09-25T20:37:07.702Z,402.85
2022-09-25T20:39:36.112Z,381.88
2022-09-25T20:42:04.595Z,384.33
2022-09-25T20:44:33.008Z,394.75
2022-09-25T20:47:02.934Z,368.90
2022-09-25T20:49:31.431Z,370.25
2022-09-25T20:52:00.315Z,344.45
2022-09-25T20:54:29.289Z,375.67
2022-09-25T20:56:57.774Z,383.25
2022-09-25T20:59:26.641Z,377.48
2022-09-25T21:01:55.439Z,360.05
2022-09-25T21:04:25.428Z,371.98
2022-09-25T21:06:53.867Z,364.95
2022-09-25T21:09:25.731Z,380.58
2022-09-25T21:11:55.329Z,353.48
2022-09-25T21:14:28.325Z,357.05
2022-09-25T21:16:57.782Z,366.33
2022-09-25T21:19:28.150Z,335.10
2022-09-25T21:21:56.581Z,375.85
2022-09-25T21:24:25.023Z,327.52
2022-09-25T21:26:53.527Z,372.10
2022-09-25T21:29:22.109Z,371.17
2022-09-25T21:31:51.128Z,339.55
2022-09-25T21:34:20.671Z,358.27
2022-09-25T21:36:50.531Z,335.25
2022-09-25T21:39:21.019Z,348.50
2022-09-25T21:41:50.624Z,164.15
2022-09-25T21:44:24.323Z,326.80
2022-09-25T21:46:52.931Z,335.65
2022-09-25T21:49:22.517Z,335.00
2022-09-25T21:51:52.573Z,312.65
2022-09-25T21:54:22.052Z,333.45
2022-09-25T21:56:50.557Z,337.35
2022-09-25T21:59:19.385Z,340.23
2022-09-25T22:01:47.933Z,338.42
2022-09-25T22:04:17.212Z,329.45
2022-09-25T22:06:48.234Z,341.55
2022-09-25T22:09:19.691Z,330.67
2022-09-25T22:11:49.455Z,304.35
2022-09-25T22:14:19.138Z,328.98
2022-09-25T22:16:49.778Z,334.55
2022-09-25T22:19:20.141Z,341.88
2022-09-25T22:21:51.212Z,317.20
2022-09-25T22:24:21.882Z,324.08
2022-09-25T22:26:52.841Z,339.05
2022-09-25T22:29:22.132Z,311.75
2022-09-25T22:31:51.092Z,325.33
2022-09-25T22:34:22.582Z,335.15
2022-09-25T22:36:56.204Z,324.00
2022-09-25T22:39:30.077Z,334.45
2022-09-25T22:41:58.637Z,317.50
2022-09-25T22:44:27.465Z,313.48
2022-09-25T22:46:56.089Z,317.05
2022-09-25T22:49:24.717Z,328.15
2022-09-25T22:51:53.174Z,331.90
2022-09-25T22:54:22.198Z,301.35
2022-09-25T22:56:53.912Z,318.75
2022-09-25T22:59:22.416Z,323.45
2022-09-25T23:01:53.069Z,307.05
2022-09-25T23:04:24.660Z,300.40
2022-09-25T23:06:53.538Z,305.30
2022-09-25T23:09:25.092Z,318.73
2022-09-25T23:11:56.245Z,291.70
2022-09-25T23:14:26.674Z,311.73
2022-09-25T23:16:55.937Z,305.70
2022-09-25T23:19:25.168Z,309.17
2022-09-25T23:21:54.630Z,310.92
2022-09-25T23:24:23.643Z,297.55
2022-09-25T23:26:52.834Z,285.02
2022-09-25T23:29:23.670Z,283.50
2022-09-25T23:31:52.865Z,300.88
2022-09-25T23:34:21.782Z,289.65
2022-09-25T23:36:50.319Z,298.05
2022-09-25T23:39:21.138Z,301.48
2022-09-25T23:41:49.931Z,300.60
2022-09-25T23:44:18.720Z,279.23
2022-09-25T23:46:48.551Z,284.25
2022-09-25T23:49:17.194Z,291.00
2022-09-25T23:51:46.386Z,292.45
2022-09-25T23:54:15.241Z,265.55
2022-09-25T23:56:44.187Z,277.67
2022-09-25T23:59:13.930Z,277.08
